• images/banner/banner1.jpg
  • images/banner/banner2.jpg

Team Member Login

Aviation Weather

[source: ADDS]
METAR
EGVN 161750Z 23002KT 9999 FEW028 BKN200 04/03 Q1002 NOSIG =
TAF EGVN 161619Z 1618/1718 25007KT 9999 FEW025 TEMPO 1621/1706 BKN020 PROB40 TEMPO 1621/1706 4000 -SHRA BKN010 PROB30 TEMPO 1706/1708 5000 -SHRASN SCT008 BKN018
TAF
TAF EGVN 161619Z 1618/1718 25007KT 9999 FEW025 TEMPO 1621/1706 BKN020 PROB40 TEMPO 1621/1706 4000 -SHRA BKN010 PROB30 TEMPO 1706/1708 5000 -SHRASN SCT008 BKN018 =